sensor_id;sensor_type;location;lat;lon;timestamp;P1;durP1;ratioP1;P2;durP2;ratioP2
59434;SDS011;45241;49.768;8.636;2023-03-26T00:00:40;4.57;;;1.05;;
59434;SDS011;45241;49.768;8.636;2023-03-26T00:03:08;6.03;;;1.17;;
59434;SDS011;45241;49.768;8.636;2023-03-26T00:05:37;6.53;;;1.27;;
59434;SDS011;45241;49.768;8.636;2023-03-26T00:08:03;5.47;;;1.30;;
59434;SDS011;45241;49.768;8.636;2023-03-26T00:10:29;3.25;;;0.98;;
59434;SDS011;45241;49.768;8.636;2023-03-26T00:12:54;5.03;;;1.20;;
59434;SDS011;45241;49.768;8.636;2023-03-26T00:15:19;4.60;;;0.98;;
59434;SDS011;45241;49.768;8.636;2023-03-26T00:17:45;6.35;;;1.15;;
59434;SDS011;45241;49.768;8.636;2023-03-26T00:20:11;6.57;;;1.13;;
59434;SDS011;45241;49.768;8.636;2023-03-26T00:22:37;5.88;;;1.30;;
59434;SDS011;45241;49.768;8.636;2023-03-26T00:25:04;6.38;;;1.52;;
59434;SDS011;45241;49.768;8.636;2023-03-26T00:27:31;5.18;;;1.23;;
59434;SDS011;45241;49.768;8.636;2023-03-26T00:29:58;8.43;;;1.15;;
59434;SDS011;45241;49.768;8.636;2023-03-26T00:32:24;6.65;;;1.35;;
59434;SDS011;45241;49.768;8.636;2023-03-26T00:34:52;5.47;;;1.30;;
59434;SDS011;45241;49.768;8.636;2023-03-26T00:37:19;5.22;;;1.30;;
59434;SDS011;45241;49.768;8.636;2023-03-26T00:39:50;6.93;;;1.05;;
59434;SDS011;45241;49.768;8.636;2023-03-26T00:42:17;5.90;;;1.25;;
59434;SDS011;45241;49.768;8.636;2023-03-26T00:44:42;7.20;;;1.30;;
59434;SDS011;45241;49.768;8.636;2023-03-26T00:47:07;6.68;;;1.30;;
59434;SDS011;45241;49.768;8.636;2023-03-26T00:49:33;6.22;;;1.50;;
59434;SDS011;45241;49.768;8.636;2023-03-26T00:51:58;7.53;;;1.13;;
59434;SDS011;45241;49.768;8.636;2023-03-26T00:54:23;6.53;;;1.17;;
59434;SDS011;45241;49.768;8.636;2023-03-26T00:56:49;5.15;;;1.08;;
59434;SDS011;45241;49.768;8.636;2023-03-26T00:59:14;5.82;;;1.20;;
59434;SDS011;45241;49.768;8.636;2023-03-26T01:01:40;5.93;;;1.20;;
59434;SDS011;45241;49.768;8.636;2023-03-26T01:04:20;6.80;;;1.40;;
59434;SDS011;45241;49.768;8.636;2023-03-26T01:07:02;7.13;;;1.45;;
59434;SDS011;45241;49.768;8.636;2023-03-26T01:09:34;6.72;;;1.20;;
59434;SDS011;45241;49.768;8.636;2023-03-26T01:12:07;9.75;;;1.50;;
59434;SDS011;45241;49.768;8.636;2023-03-26T01:14:35;4.93;;;1.13;;
59434;SDS011;45241;49.768;8.636;2023-03-26T01:17:03;6.20;;;1.42;;
59434;SDS011;45241;49.768;8.636;2023-03-26T01:22:36;9.82;;;1.77;;
59434;SDS011;45241;49.768;8.636;2023-03-26T01:25:06;7.73;;;1.47;;
59434;SDS011;45241;49.768;8.636;2023-03-26T01:30:22;7.47;;;1.50;;
59434;SDS011;45241;49.768;8.636;2023-03-26T01:36:01;8.10;;;1.75;;
59434;SDS011;45241;49.768;8.636;2023-03-26T01:41:07;9.15;;;1.70;;
59434;SDS011;45241;49.768;8.636;2023-03-26T01:46:15;7.50;;;1.67;;
59434;SDS011;45241;49.768;8.636;2023-03-26T01:48:44;9.18;;;1.80;;
59434;SDS011;45241;49.768;8.636;2023-03-26T01:51:10;8.68;;;1.63;;
59434;SDS011;45241;49.768;8.636;2023-03-26T01:53:38;9.00;;;1.70;;
59434;SDS011;45241;49.768;8.636;2023-03-26T02:01:42;6.38;;;1.80;;
59434;SDS011;45241;49.768;8.636;2023-03-26T02:06:52;8.82;;;1.83;;
59434;SDS011;45241;49.768;8.636;2023-03-26T02:09:26;8.07;;;1.52;;
59434;SDS011;45241;49.768;8.636;2023-03-26T02:11:55;9.02;;;1.48;;
59434;SDS011;45241;49.768;8.636;2023-03-26T02:14:21;7.20;;;1.65;;
59434;SDS011;45241;49.768;8.636;2023-03-26T02:16:46;10.05;;;1.80;;
59434;SDS011;45241;49.768;8.636;2023-03-26T02:19:12;6.70;;;1.52;;
59434;SDS011;45241;49.768;8.636;2023-03-26T02:21:45;8.10;;;1.30;;
59434;SDS011;45241;49.768;8.636;2023-03-26T02:24:13;7.65;;;1.80;;
59434;SDS011;45241;49.768;8.636;2023-03-26T02:26:38;10.23;;;1.58;;
59434;SDS011;45241;49.768;8.636;2023-03-26T02:29:03;9.65;;;1.80;;
59434;SDS011;45241;49.768;8.636;2023-03-26T02:31:29;6.55;;;1.10;;
59434;SDS011;45241;49.768;8.636;2023-03-26T02:33:54;9.70;;;1.38;;
59434;SDS011;45241;49.768;8.636;2023-03-26T02:36:20;6.35;;;1.38;;
59434;SDS011;45241;49.768;8.636;2023-03-26T02:38:51;9.05;;;1.40;;
59434;SDS011;45241;49.768;8.636;2023-03-26T02:41:16;7.60;;;1.27;;
59434;SDS011;45241;49.768;8.636;2023-03-26T02:43:42;11.23;;;1.70;;
59434;SDS011;45241;49.768;8.636;2023-03-26T02:46:07;6.47;;;1.40;;
59434;SDS011;45241;49.768;8.636;2023-03-26T02:48:33;8.18;;;1.42;;
59434;SDS011;45241;49.768;8.636;2023-03-26T02:51:01;7.00;;;1.42;;
59434;SDS011;45241;49.768;8.636;2023-03-26T02:53:28;8.52;;;1.40;;
59434;SDS011;45241;49.768;8.636;2023-03-26T02:55:56;10.88;;;1.60;;
59434;SDS011;45241;49.768;8.636;2023-03-26T02:58:22;7.15;;;1.40;;
59434;SDS011;45241;49.768;8.636;2023-03-26T03:00:49;7.25;;;1.77;;
59434;SDS011;45241;49.768;8.636;2023-03-26T03:03:18;6.72;;;1.95;;
59434;SDS011;45241;49.768;8.636;2023-03-26T03:05:48;6.33;;;1.47;;
59434;SDS011;45241;49.768;8.636;2023-03-26T03:08:15;8.52;;;1.45;;
59434;SDS011;45241;49.768;8.636;2023-03-26T03:10:42;10.68;;;2.22;;
59434;SDS011;45241;49.768;8.636;2023-03-26T03:13:07;6.95;;;1.50;;
59434;SDS011;45241;49.768;8.636;2023-03-26T03:15:33;7.50;;;1.70;;
59434;SDS011;45241;49.768;8.636;2023-03-26T03:17:58;4.85;;;1.30;;
59434;SDS011;45241;49.768;8.636;2023-03-26T03:20:24;6.70;;;1.20;;
59434;SDS011;45241;49.768;8.636;2023-03-26T03:22:49;10.40;;;1.70;;
59434;SDS011;45241;49.768;8.636;2023-03-26T03:25:15;8.98;;;1.70;;
59434;SDS011;45241;49.768;8.636;2023-03-26T03:27:41;7.32;;;1.80;;
59434;SDS011;45241;49.768;8.636;2023-03-26T03:30:08;8.25;;;1.80;;
59434;SDS011;45241;49.768;8.636;2023-03-26T03:32:37;8.05;;;1.50;;
59434;SDS011;45241;49.768;8.636;2023-03-26T03:35:03;8.68;;;1.83;;
59434;SDS011;45241;49.768;8.636;2023-03-26T03:37:29;9.15;;;1.55;;
59434;SDS011;45241;49.768;8.636;2023-03-26T03:39:54;9.02;;;1.75;;
59434;SDS011;45241;49.768;8.636;2023-03-26T03:42:19;9.50;;;1.60;;
59434;SDS011;45241;49.768;8.636;2023-03-26T03:44:45;8.50;;;1.40;;
59434;SDS011;45241;49.768;8.636;2023-03-26T03:47:10;8.13;;;1.65;;
59434;SDS011;45241;49.768;8.636;2023-03-26T03:49:37;10.00;;;1.58;;
59434;SDS011;45241;49.768;8.636;2023-03-26T03:52:03;10.35;;;1.65;;
59434;SDS011;45241;49.768;8.636;2023-03-26T03:54:28;9.73;;;1.67;;
59434;SDS011;45241;49.768;8.636;2023-03-26T03:56:54;6.80;;;1.27;;
59434;SDS011;45241;49.768;8.636;2023-03-26T03:59:19;7.20;;;1.50;;
59434;SDS011;45241;49.768;8.636;2023-03-26T04:01:45;7.53;;;1.52;;
59434;SDS011;45241;49.768;8.636;2023-03-26T04:04:14;7.00;;;1.40;;
59434;SDS011;45241;49.768;8.636;2023-03-26T04:06:40;12.48;;;1.38;;
59434;SDS011;45241;49.768;8.636;2023-03-26T04:09:06;10.55;;;1.70;;
59434;SDS011;45241;49.768;8.636;2023-03-26T04:11:31;8.05;;;1.52;;
59434;SDS011;45241;49.768;8.636;2023-03-26T04:13:56;7.25;;;1.98;;
59434;SDS011;45241;49.768;8.636;2023-03-26T04:16:21;7.57;;;1.63;;
59434;SDS011;45241;49.768;8.636;2023-03-26T04:18:47;8.20;;;1.88;;
59434;SDS011;45241;49.768;8.636;2023-03-26T04:21:12;11.48;;;1.60;;
59434;SDS011;45241;49.768;8.636;2023-03-26T04:23:39;10.13;;;1.75;;
59434;SDS011;45241;49.768;8.636;2023-03-26T04:26:06;6.88;;;1.35;;
59434;SDS011;45241;49.768;8.636;2023-03-26T04:28:44;7.90;;;1.48;;
59434;SDS011;45241;49.768;8.636;2023-03-26T04:31:14;8.02;;;1.52;;
59434;SDS011;45241;49.768;8.636;2023-03-26T04:33:45;8.02;;;2.22;;
59434;SDS011;45241;49.768;8.636;2023-03-26T04:36:12;12.02;;;1.90;;
59434;SDS011;45241;49.768;8.636;2023-03-26T04:38:40;8.48;;;1.35;;
59434;SDS011;45241;49.768;8.636;2023-03-26T04:41:08;9.45;;;1.55;;
59434;SDS011;45241;49.768;8.636;2023-03-26T04:43:35;7.35;;;1.42;;
59434;SDS011;45241;49.768;8.636;2023-03-26T04:46:06;7.78;;;1.83;;
59434;SDS011;45241;49.768;8.636;2023-03-26T04:48:32;6.32;;;1.35;;
59434;SDS011;45241;49.768;8.636;2023-03-26T04:50:57;7.72;;;1.30;;
59434;SDS011;45241;49.768;8.636;2023-03-26T04:53:22;8.35;;;1.80;;
59434;SDS011;45241;49.768;8.636;2023-03-26T04:55:58;7.15;;;1.50;;
59434;SDS011;45241;49.768;8.636;2023-03-26T04:58:29;9.75;;;1.85;;
59434;SDS011;45241;49.768;8.636;2023-03-26T05:00:59;12.25;;;1.70;;
59434;SDS011;45241;49.768;8.636;2023-03-26T05:03:27;6.85;;;1.60;;
59434;SDS011;45241;49.768;8.636;2023-03-26T05:05:58;13.15;;;1.33;;
59434;SDS011;45241;49.768;8.636;2023-03-26T05:08:25;9.43;;;1.50;;
59434;SDS011;45241;49.768;8.636;2023-03-26T05:10:52;6.22;;;1.58;;
59434;SDS011;45241;49.768;8.636;2023-03-26T05:13:21;8.95;;;1.83;;
59434;SDS011;45241;49.768;8.636;2023-03-26T05:15:47;7.88;;;1.48;;
59434;SDS011;45241;49.768;8.636;2023-03-26T05:18:12;9.98;;;1.77;;
59434;SDS011;45241;49.768;8.636;2023-03-26T05:20:38;9.98;;;1.67;;
59434;SDS011;45241;49.768;8.636;2023-03-26T05:23:03;8.35;;;2.00;;
59434;SDS011;45241;49.768;8.636;2023-03-26T05:25:29;7.07;;;1.60;;
59434;SDS011;45241;49.768;8.636;2023-03-26T05:27:55;9.18;;;1.40;;
59434;SDS011;45241;49.768;8.636;2023-03-26T05:30:20;9.75;;;1.67;;
59434;SDS011;45241;49.768;8.636;2023-03-26T05:32:47;8.52;;;1.75;;
59434;SDS011;45241;49.768;8.636;2023-03-26T05:35:13;8.63;;;1.52;;
59434;SDS011;45241;49.768;8.636;2023-03-26T05:37:41;9.23;;;1.85;;
59434;SDS011;45241;49.768;8.636;2023-03-26T05:40:08;7.78;;;1.50;;
59434;SDS011;45241;49.768;8.636;2023-03-26T05:42:35;7.28;;;1.45;;
59434;SDS011;45241;49.768;8.636;2023-03-26T05:45:01;11.90;;;1.60;;
59434;SDS011;45241;49.768;8.636;2023-03-26T05:47:26;13.68;;;1.88;;
59434;SDS011;45241;49.768;8.636;2023-03-26T05:49:51;8.88;;;1.60;;
59434;SDS011;45241;49.768;8.636;2023-03-26T05:52:17;5.85;;;1.30;;
59434;SDS011;45241;49.768;8.636;2023-03-26T05:54:43;8.43;;;1.67;;
59434;SDS011;45241;49.768;8.636;2023-03-26T05:57:08;8.55;;;1.60;;
59434;SDS011;45241;49.768;8.636;2023-03-26T05:59:33;4.78;;;1.63;;
59434;SDS011;45241;49.768;8.636;2023-03-26T06:01:59;10.90;;;1.20;;
59434;SDS011;45241;49.768;8.636;2023-03-26T06:04:24;9.60;;;1.70;;
59434;SDS011;45241;49.768;8.636;2023-03-26T06:06:49;6.35;;;1.40;;
59434;SDS011;45241;49.768;8.636;2023-03-26T06:09:16;7.90;;;1.50;;
59434;SDS011;45241;49.768;8.636;2023-03-26T06:11:42;4.65;;;1.30;;
59434;SDS011;45241;49.768;8.636;2023-03-26T06:14:07;7.70;;;1.38;;
59434;SDS011;45241;49.768;8.636;2023-03-26T06:16:33;10.50;;;1.63;;
59434;SDS011;45241;49.768;8.636;2023-03-26T06:18:58;8.32;;;1.35;;
59434;SDS011;45241;49.768;8.636;2023-03-26T06:21:24;9.73;;;1.70;;
59434;SDS011;45241;49.768;8.636;2023-03-26T06:24:02;7.78;;;1.48;;
59434;SDS011;45241;49.768;8.636;2023-03-26T06:26:27;8.80;;;1.80;;
59434;SDS011;45241;49.768;8.636;2023-03-26T06:28:53;8.95;;;1.58;;
59434;SDS011;45241;49.768;8.636;2023-03-26T06:31:18;9.90;;;1.52;;
59434;SDS011;45241;49.768;8.636;2023-03-26T06:33:43;9.90;;;1.75;;
59434;SDS011;45241;49.768;8.636;2023-03-26T06:36:10;7.15;;;1.50;;
59434;SDS011;45241;49.768;8.636;2023-03-26T06:38:35;9.32;;;2.22;;
59434;SDS011;45241;49.768;8.636;2023-03-26T06:41:01;7.05;;;1.90;;
59434;SDS011;45241;49.768;8.636;2023-03-26T06:43:27;6.78;;;1.83;;
59434;SDS011;45241;49.768;8.636;2023-03-26T06:45:52;6.47;;;1.75;;
59434;SDS011;45241;49.768;8.636;2023-03-26T06:48:18;6.40;;;1.73;;
59434;SDS011;45241;49.768;8.636;2023-03-26T06:50:43;5.28;;;1.65;;
59434;SDS011;45241;49.768;8.636;2023-03-26T06:53:09;11.13;;;2.22;;
59434;SDS011;45241;49.768;8.636;2023-03-26T06:55:35;6.50;;;1.63;;
59434;SDS011;45241;49.768;8.636;2023-03-26T06:58:00;6.88;;;1.65;;
59434;SDS011;45241;49.768;8.636;2023-03-26T07:00:25;6.72;;;1.77;;
59434;SDS011;45241;49.768;8.636;2023-03-26T07:02:51;10.77;;;1.92;;
59434;SDS011;45241;49.768;8.636;2023-03-26T07:05:16;6.28;;;1.60;;
59434;SDS011;45241;49.768;8.636;2023-03-26T07:07:41;11.98;;;1.95;;
59434;SDS011;45241;49.768;8.636;2023-03-26T07:10:07;6.57;;;1.73;;
59434;SDS011;45241;49.768;8.636;2023-03-26T07:12:33;10.60;;;2.20;;
59434;SDS011;45241;49.768;8.636;2023-03-26T07:14:59;10.73;;;2.30;;
59434;SDS011;45241;49.768;8.636;2023-03-26T07:17:26;7.05;;;2.10;;
59434;SDS011;45241;49.768;8.636;2023-03-26T07:19:51;5.97;;;1.65;;
59434;SDS011;45241;49.768;8.636;2023-03-26T07:22:19;7.00;;;1.80;;
59434;SDS011;45241;49.768;8.636;2023-03-26T07:24:49;9.73;;;1.80;;
59434;SDS011;45241;49.768;8.636;2023-03-26T07:30:08;5.38;;;2.15;;
59434;SDS011;45241;49.768;8.636;2023-03-26T07:32:46;6.72;;;1.80;;
59434;SDS011;45241;49.768;8.636;2023-03-26T07:35:31;5.90;;;1.45;;
59434;SDS011;45241;49.768;8.636;2023-03-26T07:38:23;9.15;;;1.70;;
59434;SDS011;45241;49.768;8.636;2023-03-26T07:46:35;5.47;;;1.60;;
59434;SDS011;45241;49.768;8.636;2023-03-26T07:49:01;10.23;;;1.48;;
59434;SDS011;45241;49.768;8.636;2023-03-26T07:51:28;11.43;;;1.95;;
59434;SDS011;45241;49.768;8.636;2023-03-26T07:53:54;6.35;;;1.52;;
59434;SDS011;45241;49.768;8.636;2023-03-26T07:56:33;6.63;;;1.67;;
59434;SDS011;45241;49.768;8.636;2023-03-26T08:02:33;7.13;;;1.42;;
59434;SDS011;45241;49.768;8.636;2023-03-26T08:10:15;9.43;;;2.10;;
59434;SDS011;45241;49.768;8.636;2023-03-26T08:12:50;7.78;;;1.35;;
59434;SDS011;45241;49.768;8.636;2023-03-26T08:15:33;7.32;;;1.67;;
59434;SDS011;45241;49.768;8.636;2023-03-26T08:21:05;7.22;;;1.55;;
59434;SDS011;45241;49.768;8.636;2023-03-26T08:29:08;5.25;;;2.15;;
59434;SDS011;45241;49.768;8.636;2023-03-26T08:31:40;6.18;;;1.48;;
59434;SDS011;45241;49.768;8.636;2023-03-26T08:34:09;7.65;;;2.08;;
59434;SDS011;45241;49.768;8.636;2023-03-26T08:36:36;8.00;;;1.70;;
59434;SDS011;45241;49.768;8.636;2023-03-26T08:39:02;5.55;;;1.67;;
59434;SDS011;45241;49.768;8.636;2023-03-26T08:41:38;4.65;;;1.63;;
59434;SDS011;45241;49.768;8.636;2023-03-26T08:47:15;6.78;;;1.90;;
59434;SDS011;45241;49.768;8.636;2023-03-26T08:58:53;9.77;;;1.55;;
59434;SDS011;45241;49.768;8.636;2023-03-26T09:04:48;5.03;;;1.88;;
59434;SDS011;45241;49.768;8.636;2023-03-26T09:24:04;3.70;;;1.35;;
59434;SDS011;45241;49.768;8.636;2023-03-26T09:29:28;7.47;;;1.30;;
59434;SDS011;45241;49.768;8.636;2023-03-26T09:32:09;4.63;;;1.25;;
59434;SDS011;45241;49.768;8.636;2023-03-26T09:43:41;4.57;;;1.35;;
59434;SDS011;45241;49.768;8.636;2023-03-26T09:49:33;5.20;;;1.20;;
59434;SDS011;45241;49.768;8.636;2023-03-26T09:52:06;4.03;;;1.20;;
59434;SDS011;45241;49.768;8.636;2023-03-26T10:07:57;4.18;;;1.00;;
59434;SDS011;45241;49.768;8.636;2023-03-26T10:16:01;4.07;;;0.90;;
59434;SDS011;45241;49.768;8.636;2023-03-26T10:21:27;3.25;;;0.82;;
59434;SDS011;45241;49.768;8.636;2023-03-26T10:27:07;1.75;;;0.70;;
59434;SDS011;45241;49.768;8.636;2023-03-26T10:32:54;2.90;;;0.45;;
59434;SDS011;45241;49.768;8.636;2023-03-26T10:41:16;3.05;;;1.02;;
59434;SDS011;45241;49.768;8.636;2023-03-26T10:52:05;4.10;;;1.05;;
59434;SDS011;45241;49.768;8.636;2023-03-26T10:57:27;3.25;;;0.90;;
59434;SDS011;45241;49.768;8.636;2023-03-26T10:59:54;2.70;;;0.90;;
59434;SDS011;45241;49.768;8.636;2023-03-26T11:02:25;4.18;;;1.13;;
59434;SDS011;45241;49.768;8.636;2023-03-26T11:10:14;4.65;;;1.20;;
59434;SDS011;45241;49.768;8.636;2023-03-26T11:12:53;3.97;;;1.20;;
59434;SDS011;45241;49.768;8.636;2023-03-26T11:15:51;3.85;;;0.93;;
59434;SDS011;45241;49.768;8.636;2023-03-26T11:18:19;3.58;;;0.90;;
59434;SDS011;45241;49.768;8.636;2023-03-26T11:20:55;4.97;;;1.00;;
59434;SDS011;45241;49.768;8.636;2023-03-26T11:28:38;3.63;;;1.23;;
59434;SDS011;45241;49.768;8.636;2023-03-26T11:31:30;6.97;;;1.80;;
59434;SDS011;45241;49.768;8.636;2023-03-26T11:34:15;4.22;;;1.70;;
59434;SDS011;45241;49.768;8.636;2023-03-26T11:36:45;3.47;;;1.35;;
59434;SDS011;45241;49.768;8.636;2023-03-26T11:39:40;2.92;;;1.02;;
59434;SDS011;45241;49.768;8.636;2023-03-26T11:42:14;6.20;;;1.58;;
59434;SDS011;45241;49.768;8.636;2023-03-26T11:44:44;4.15;;;1.40;;
59434;SDS011;45241;49.768;8.636;2023-03-26T11:47:16;6.80;;;1.20;;
59434;SDS011;45241;49.768;8.636;2023-03-26T11:49:47;4.20;;;1.35;;
59434;SDS011;45241;49.768;8.636;2023-03-26T11:52:15;3.55;;;1.35;;
59434;SDS011;45241;49.768;8.636;2023-03-26T11:54:40;3.65;;;1.60;;
59434;SDS011;45241;49.768;8.636;2023-03-26T11:57:11;6.18;;;1.60;;
59434;SDS011;45241;49.768;8.636;2023-03-26T11:59:44;6.65;;;1.85;;
59434;SDS011;45241;49.768;8.636;2023-03-26T12:04:53;2.17;;;1.20;;
59434;SDS011;45241;49.768;8.636;2023-03-26T12:07:49;4.35;;;1.40;;
59434;SDS011;45241;49.768;8.636;2023-03-26T12:10:25;3.97;;;1.30;;
59434;SDS011;45241;49.768;8.636;2023-03-26T12:15:45;3.50;;;0.80;;
59434;SDS011;45241;49.768;8.636;2023-03-26T12:18:24;2.75;;;0.95;;
59434;SDS011;45241;49.768;8.636;2023-03-26T12:21:00;1.23;;;0.65;;
59434;SDS011;45241;49.768;8.636;2023-03-26T12:26:35;0.43;;;0.25;;
59434;SDS011;45241;49.768;8.636;2023-03-26T12:29:10;1.27;;;0.30;;
59434;SDS011;45241;49.768;8.636;2023-03-26T12:31:43;0.90;;;0.30;;
59434;SDS011;45241;49.768;8.636;2023-03-26T12:34:29;0.93;;;0.30;;
59434;SDS011;45241;49.768;8.636;2023-03-26T12:36:58;2.72;;;0.30;;
59434;SDS011;45241;49.768;8.636;2023-03-26T12:39:29;2.78;;;0.45;;
59434;SDS011;45241;49.768;8.636;2023-03-26T12:42:25;3.67;;;0.50;;
59434;SDS011;45241;49.768;8.636;2023-03-26T12:44:53;1.27;;;0.30;;
59434;SDS011;45241;49.768;8.636;2023-03-26T12:47:21;1.25;;;0.38;;
59434;SDS011;45241;49.768;8.636;2023-03-26T12:49:49;2.30;;;0.30;;
59434;SDS011;45241;49.768;8.636;2023-03-26T12:55:16;1.92;;;0.45;;
59434;SDS011;45241;49.768;8.636;2023-03-26T12:57:59;1.60;;;0.50;;
59434;SDS011;45241;49.768;8.636;2023-03-26T13:00:46;1.27;;;0.40;;
59434;SDS011;45241;49.768;8.636;2023-03-26T13:09:27;0.95;;;0.20;;
59434;SDS011;45241;49.768;8.636;2023-03-26T13:15:15;0.98;;;0.30;;
59434;SDS011;45241;49.768;8.636;2023-03-26T13:23:29;2.15;;;0.70;;
59434;SDS011;45241;49.768;8.636;2023-03-26T13:26:09;1.80;;;0.40;;
59434;SDS011;45241;49.768;8.636;2023-03-26T13:34:29;2.92;;;0.65;;
59434;SDS011;45241;49.768;8.636;2023-03-26T13:37:53;5.70;;;0.40;;
59434;SDS011;45241;49.768;8.636;2023-03-26T13:43:04;2.25;;;0.50;;
59434;SDS011;45241;49.768;8.636;2023-03-26T13:48:16;3.20;;;0.35;;
59434;SDS011;45241;49.768;8.636;2023-03-26T13:50:50;1.70;;;0.32;;
59434;SDS011;45241;49.768;8.636;2023-03-26T13:53:28;4.00;;;0.55;;
59434;SDS011;45241;49.768;8.636;2023-03-26T13:56:02;1.80;;;0.45;;
59434;SDS011;45241;49.768;8.636;2023-03-26T14:01:12;2.97;;;0.70;;
59434;SDS011;45241;49.768;8.636;2023-03-26T14:14:36;4.22;;;0.52;;
59434;SDS011;45241;49.768;8.636;2023-03-26T14:22:52;2.67;;;0.45;;
59434;SDS011;45241;49.768;8.636;2023-03-26T14:27:59;1.50;;;0.40;;
59434;SDS011;45241;49.768;8.636;2023-03-26T14:31:00;1.65;;;0.30;;
59434;SDS011;45241;49.768;8.636;2023-03-26T14:33:49;3.50;;;0.65;;
59434;SDS011;45241;49.768;8.636;2023-03-26T14:36:42;3.85;;;0.40;;
59434;SDS011;45241;49.768;8.636;2023-03-26T14:42:56;1.55;;;0.40;;
59434;SDS011;45241;49.768;8.636;2023-03-26T14:45:25;2.90;;;0.40;;
59434;SDS011;45241;49.768;8.636;2023-03-26T14:48:25;3.67;;;0.60;;
59434;SDS011;45241;49.768;8.636;2023-03-26T14:53:49;2.35;;;0.40;;
59434;SDS011;45241;49.768;8.636;2023-03-26T15:02:03;2.67;;;0.50;;
59434;SDS011;45241;49.768;8.636;2023-03-26T15:17:18;3.30;;;0.70;;
59434;SDS011;45241;49.768;8.636;2023-03-26T15:25:47;4.32;;;0.63;;
59434;SDS011;45241;49.768;8.636;2023-03-26T15:33:59;4.50;;;0.80;;
59434;SDS011;45241;49.768;8.636;2023-03-26T15:36:44;2.97;;;0.50;;
59434;SDS011;45241;49.768;8.636;2023-03-26T15:42:36;3.20;;;0.70;;
59434;SDS011;45241;49.768;8.636;2023-03-26T15:59:17;3.58;;;1.02;;
59434;SDS011;45241;49.768;8.636;2023-03-26T16:02:07;2.67;;;0.65;;
59434;SDS011;45241;49.768;8.636;2023-03-26T16:04:52;2.22;;;0.40;;
59434;SDS011;45241;49.768;8.636;2023-03-26T16:10:12;2.83;;;0.50;;
59434;SDS011;45241;49.768;8.636;2023-03-26T16:15:48;1.95;;;0.55;;
59434;SDS011;45241;49.768;8.636;2023-03-26T16:18:30;2.85;;;0.70;;
59434;SDS011;45241;49.768;8.636;2023-03-26T16:31:20;1.75;;;0.35;;
59434;SDS011;45241;49.768;8.636;2023-03-26T16:36:44;3.55;;;0.30;;
59434;SDS011;45241;49.768;8.636;2023-03-26T16:42:00;1.75;;;0.20;;
59434;SDS011;45241;49.768;8.636;2023-03-26T16:50:07;1.15;;;0.30;;
59434;SDS011;45241;49.768;8.636;2023-03-26T17:03:31;0.50;;;0.10;;
59434;SDS011;45241;49.768;8.636;2023-03-26T17:06:12;1.92;;;0.30;;
59434;SDS011;45241;49.768;8.636;2023-03-26T17:09:06;0.75;;;0.20;;
59434;SDS011;45241;49.768;8.636;2023-03-26T17:11:48;1.60;;;0.30;;
59434;SDS011;45241;49.768;8.636;2023-03-26T17:15:06;0.98;;;0.32;;
59434;SDS011;45241;49.768;8.636;2023-03-26T17:17:56;2.35;;;0.40;;
59434;SDS011;45241;49.768;8.636;2023-03-26T17:20:34;1.67;;;0.60;;
59434;SDS011;45241;49.768;8.636;2023-03-26T17:25:41;3.05;;;0.80;;
59434;SDS011;45241;49.768;8.636;2023-03-26T17:33:36;2.25;;;0.50;;
59434;SDS011;45241;49.768;8.636;2023-03-26T17:36:13;1.05;;;0.47;;
59434;SDS011;45241;49.768;8.636;2023-03-26T17:41:14;1.45;;;0.45;;
59434;SDS011;45241;49.768;8.636;2023-03-26T17:44:35;3.38;;;0.55;;
59434;SDS011;45241;49.768;8.636;2023-03-26T17:47:05;1.05;;;0.45;;
59434;SDS011;45241;49.768;8.636;2023-03-26T17:49:40;2.67;;;0.57;;
59434;SDS011;45241;49.768;8.636;2023-03-26T17:54:50;1.60;;;0.60;;
59434;SDS011;45241;49.768;8.636;2023-03-26T17:59:46;2.40;;;0.70;;
59434;SDS011;45241;49.768;8.636;2023-03-26T18:02:15;1.20;;;0.80;;
59434;SDS011;45241;49.768;8.636;2023-03-26T18:10:20;1.73;;;0.50;;
59434;SDS011;45241;49.768;8.636;2023-03-26T18:18:11;2.15;;;0.47;;
59434;SDS011;45241;49.768;8.636;2023-03-26T18:20:44;3.10;;;0.50;;
59434;SDS011;45241;49.768;8.636;2023-03-26T18:23:21;2.75;;;0.55;;
59434;SDS011;45241;49.768;8.636;2023-03-26T18:25:54;1.13;;;0.38;;
59434;SDS011;45241;49.768;8.636;2023-03-26T18:28:29;2.22;;;0.43;;
59434;SDS011;45241;49.768;8.636;2023-03-26T18:31:06;0.98;;;0.50;;
59434;SDS011;45241;49.768;8.636;2023-03-26T18:33:40;1.50;;;0.45;;
59434;SDS011;45241;49.768;8.636;2023-03-26T18:36:07;1.88;;;0.43;;
59434;SDS011;45241;49.768;8.636;2023-03-26T18:38:35;1.85;;;0.40;;
59434;SDS011;45241;49.768;8.636;2023-03-26T18:41:00;3.00;;;0.43;;
59434;SDS011;45241;49.768;8.636;2023-03-26T18:43:26;1.65;;;0.30;;
59434;SDS011;45241;49.768;8.636;2023-03-26T18:45:51;1.23;;;0.32;;
59434;SDS011;45241;49.768;8.636;2023-03-26T18:48:19;4.57;;;0.52;;
59434;SDS011;45241;49.768;8.636;2023-03-26T18:50:47;2.05;;;0.50;;
59434;SDS011;45241;49.768;8.636;2023-03-26T18:53:17;1.85;;;0.40;;
59434;SDS011;45241;49.768;8.636;2023-03-26T18:55:49;1.48;;;0.77;;
59434;SDS011;45241;49.768;8.636;2023-03-26T19:00:58;1.33;;;0.50;;
59434;SDS011;45241;49.768;8.636;2023-03-26T19:03:26;1.92;;;0.50;;
59434;SDS011;45241;49.768;8.636;2023-03-26T19:05:53;0.90;;;0.38;;
59434;SDS011;45241;49.768;8.636;2023-03-26T19:08:20;2.28;;;0.70;;
59434;SDS011;45241;49.768;8.636;2023-03-26T19:10:48;3.13;;;0.57;;
59434;SDS011;45241;49.768;8.636;2023-03-26T19:13:14;2.28;;;0.50;;
59434;SDS011;45241;49.768;8.636;2023-03-26T19:15:40;2.97;;;0.50;;
59434;SDS011;45241;49.768;8.636;2023-03-26T19:18:12;3.00;;;0.70;;
59434;SDS011;45241;49.768;8.636;2023-03-26T19:20:44;2.00;;;0.55;;
59434;SDS011;45241;49.768;8.636;2023-03-26T19:23:16;1.40;;;0.50;;
59434;SDS011;45241;49.768;8.636;2023-03-26T19:25:53;1.00;;;0.30;;
59434;SDS011;45241;49.768;8.636;2023-03-26T19:28:38;2.20;;;0.90;;
59434;SDS011;45241;49.768;8.636;2023-03-26T19:31:07;3.10;;;1.30;;
59434;SDS011;45241;49.768;8.636;2023-03-26T19:33:40;2.28;;;0.70;;
59434;SDS011;45241;49.768;8.636;2023-03-26T19:38:42;2.08;;;0.68;;
59434;SDS011;45241;49.768;8.636;2023-03-26T19:46:21;1.35;;;0.70;;
59434;SDS011;45241;49.768;8.636;2023-03-26T19:48:49;2.20;;;0.60;;
59434;SDS011;45241;49.768;8.636;2023-03-26T19:51:22;2.05;;;0.65;;
59434;SDS011;45241;49.768;8.636;2023-03-26T19:53:56;1.85;;;0.70;;
59434;SDS011;45241;49.768;8.636;2023-03-26T19:56:24;1.02;;;0.57;;
59434;SDS011;45241;49.768;8.636;2023-03-26T19:58:49;2.15;;;0.70;;
59434;SDS011;45241;49.768;8.636;2023-03-26T20:01:16;4.00;;;0.80;;
59434;SDS011;45241;49.768;8.636;2023-03-26T20:03:56;3.33;;;0.60;;
59434;SDS011;45241;49.768;8.636;2023-03-26T20:06:23;2.85;;;0.80;;
59434;SDS011;45241;49.768;8.636;2023-03-26T20:08:52;0.82;;;0.52;;
59434;SDS011;45241;49.768;8.636;2023-03-26T20:11:20;2.95;;;0.85;;
59434;SDS011;45241;49.768;8.636;2023-03-26T20:13:47;1.33;;;0.60;;
59434;SDS011;45241;49.768;8.636;2023-03-26T20:16:15;6.38;;;1.00;;
59434;SDS011;45241;49.768;8.636;2023-03-26T20:18:47;2.47;;;0.80;;
59434;SDS011;45241;49.768;8.636;2023-03-26T20:21:14;2.17;;;0.77;;
59434;SDS011;45241;49.768;8.636;2023-03-26T20:23:40;2.60;;;0.63;;
59434;SDS011;45241;49.768;8.636;2023-03-26T20:26:13;2.17;;;0.65;;
59434;SDS011;45241;49.768;8.636;2023-03-26T20:28:40;2.35;;;0.60;;
59434;SDS011;45241;49.768;8.636;2023-03-26T20:31:13;1.20;;;0.60;;
59434;SDS011;45241;49.768;8.636;2023-03-26T20:33:50;1.38;;;0.40;;
59434;SDS011;45241;49.768;8.636;2023-03-26T20:36:17;1.13;;;0.40;;
59434;SDS011;45241;49.768;8.636;2023-03-26T20:38:43;3.33;;;0.77;;
59434;SDS011;45241;49.768;8.636;2023-03-26T20:41:14;1.30;;;0.40;;
59434;SDS011;45241;49.768;8.636;2023-03-26T20:43:43;2.00;;;0.60;;
59434;SDS011;45241;49.768;8.636;2023-03-26T20:46:15;2.28;;;0.40;;